sensor_id;sensor_type;location;lat;lon;timestamp;P1;durP1;ratioP1;P2;durP2;ratioP2
12052;SDS011;6087;48.982;12.064;2023-03-03T00:00:35;27.67;;;17.40;;
12052;SDS011;6087;48.982;12.064;2023-03-03T00:03:03;28.30;;;17.47;;
12052;SDS011;6087;48.982;12.064;2023-03-03T00:05:33;28.40;;;17.27;;
12052;SDS011;6087;48.982;12.064;2023-03-03T00:08:03;24.97;;;16.30;;
12052;SDS011;6087;48.982;12.064;2023-03-03T00:10:30;30.83;;;19.03;;
12052;SDS011;6087;48.982;12.064;2023-03-03T00:12:57;28.93;;;17.43;;
12052;SDS011;6087;48.982;12.064;2023-03-03T00:15:24;30.73;;;18.00;;
12052;SDS011;6087;48.982;12.064;2023-03-03T00:17:52;28.90;;;16.30;;
12052;SDS011;6087;48.982;12.064;2023-03-03T00:20:28;25.73;;;16.73;;
12052;SDS011;6087;48.982;12.064;2023-03-03T00:23:02;28.80;;;17.90;;
12052;SDS011;6087;48.982;12.064;2023-03-03T00:25:43;28.63;;;16.67;;
12052;SDS011;6087;48.982;12.064;2023-03-03T00:28:16;29.30;;;17.27;;
12052;SDS011;6087;48.982;12.064;2023-03-03T00:30:49;26.60;;;17.43;;
12052;SDS011;6087;48.982;12.064;2023-03-03T00:33:22;28.00;;;17.63;;
12052;SDS011;6087;48.982;12.064;2023-03-03T00:35:56;27.97;;;16.80;;
12052;SDS011;6087;48.982;12.064;2023-03-03T00:38:33;26.60;;;15.20;;
12052;SDS011;6087;48.982;12.064;2023-03-03T00:41:00;27.27;;;17.40;;
12052;SDS011;6087;48.982;12.064;2023-03-03T00:43:32;29.50;;;16.10;;
12052;SDS011;6087;48.982;12.064;2023-03-03T00:46:00;26.93;;;16.43;;
12052;SDS011;6087;48.982;12.064;2023-03-03T00:48:28;22.57;;;16.77;;
12052;SDS011;6087;48.982;12.064;2023-03-03T00:50:57;24.83;;;16.30;;
12052;SDS011;6087;48.982;12.064;2023-03-03T00:53:25;29.70;;;17.43;;
12052;SDS011;6087;48.982;12.064;2023-03-03T00:55:55;30.40;;;17.00;;
12052;SDS011;6087;48.982;12.064;2023-03-03T00:58:22;26.77;;;16.27;;
12052;SDS011;6087;48.982;12.064;2023-03-03T01:00:52;33.60;;;18.93;;
12052;SDS011;6087;48.982;12.064;2023-03-03T01:03:21;30.10;;;16.70;;
12052;SDS011;6087;48.982;12.064;2023-03-03T01:05:49;25.80;;;16.53;;
12052;SDS011;6087;48.982;12.064;2023-03-03T01:08:17;27.97;;;17.13;;
12052;SDS011;6087;48.982;12.064;2023-03-03T01:10:45;28.43;;;16.97;;
12052;SDS011;6087;48.982;12.064;2023-03-03T01:13:17;27.93;;;16.70;;
12052;SDS011;6087;48.982;12.064;2023-03-03T01:15:45;25.40;;;15.77;;
12052;SDS011;6087;48.982;12.064;2023-03-03T01:18:18;31.13;;;18.07;;
12052;SDS011;6087;48.982;12.064;2023-03-03T01:20:45;32.50;;;18.03;;
12052;SDS011;6087;48.982;12.064;2023-03-03T01:23:12;27.47;;;17.80;;
12052;SDS011;6087;48.982;12.064;2023-03-03T01:25:39;30.60;;;16.57;;
12052;SDS011;6087;48.982;12.064;2023-03-03T01:28:06;28.77;;;16.43;;
12052;SDS011;6087;48.982;12.064;2023-03-03T01:30:35;27.67;;;17.73;;
12052;SDS011;6087;48.982;12.064;2023-03-03T01:33:02;25.07;;;17.03;;
12052;SDS011;6087;48.982;12.064;2023-03-03T01:35:29;27.70;;;16.63;;
12052;SDS011;6087;48.982;12.064;2023-03-03T01:37:56;24.70;;;15.93;;
12052;SDS011;6087;48.982;12.064;2023-03-03T01:40:25;25.80;;;16.77;;
12052;SDS011;6087;48.982;12.064;2023-03-03T01:42:53;27.80;;;16.30;;
12052;SDS011;6087;48.982;12.064;2023-03-03T01:45:20;26.07;;;16.20;;
12052;SDS011;6087;48.982;12.064;2023-03-03T01:47:55;29.40;;;16.83;;
12052;SDS011;6087;48.982;12.064;2023-03-03T01:50:38;27.07;;;16.73;;
12052;SDS011;6087;48.982;12.064;2023-03-03T01:53:12;27.73;;;16.67;;
12052;SDS011;6087;48.982;12.064;2023-03-03T01:55:44;25.97;;;16.17;;
12052;SDS011;6087;48.982;12.064;2023-03-03T01:58:13;24.03;;;15.87;;
12052;SDS011;6087;48.982;12.064;2023-03-03T02:00:44;25.80;;;16.40;;
12052;SDS011;6087;48.982;12.064;2023-03-03T02:03:16;27.30;;;18.47;;
12052;SDS011;6087;48.982;12.064;2023-03-03T02:05:45;26.43;;;15.63;;
12052;SDS011;6087;48.982;12.064;2023-03-03T02:08:13;24.13;;;16.30;;
12052;SDS011;6087;48.982;12.064;2023-03-03T02:10:44;29.70;;;16.53;;
12052;SDS011;6087;48.982;12.064;2023-03-03T02:13:14;26.67;;;17.17;;
12052;SDS011;6087;48.982;12.064;2023-03-03T02:15:46;26.97;;;17.30;;
12052;SDS011;6087;48.982;12.064;2023-03-03T02:18:14;25.77;;;15.87;;
12052;SDS011;6087;48.982;12.064;2023-03-03T02:20:48;28.43;;;16.93;;
12052;SDS011;6087;48.982;12.064;2023-03-03T02:23:26;25.77;;;15.30;;
12052;SDS011;6087;48.982;12.064;2023-03-03T02:26:06;26.47;;;15.73;;
12052;SDS011;6087;48.982;12.064;2023-03-03T02:28:35;23.20;;;15.43;;
12052;SDS011;6087;48.982;12.064;2023-03-03T02:31:04;28.10;;;16.03;;
12052;SDS011;6087;48.982;12.064;2023-03-03T02:33:35;23.43;;;15.53;;
12052;SDS011;6087;48.982;12.064;2023-03-03T02:36:02;26.07;;;16.33;;
12052;SDS011;6087;48.982;12.064;2023-03-03T02:38:29;27.10;;;15.80;;
12052;SDS011;6087;48.982;12.064;2023-03-03T02:41:02;26.47;;;16.00;;
12052;SDS011;6087;48.982;12.064;2023-03-03T02:43:39;23.97;;;15.90;;
12052;SDS011;6087;48.982;12.064;2023-03-03T02:46:11;26.13;;;15.20;;
12052;SDS011;6087;48.982;12.064;2023-03-03T02:48:38;24.00;;;15.80;;
12052;SDS011;6087;48.982;12.064;2023-03-03T02:51:05;27.50;;;16.03;;
12052;SDS011;6087;48.982;12.064;2023-03-03T02:53:32;26.33;;;15.30;;
12052;SDS011;6087;48.982;12.064;2023-03-03T02:55:59;22.23;;;14.73;;
12052;SDS011;6087;48.982;12.064;2023-03-03T02:58:29;25.20;;;15.33;;
12052;SDS011;6087;48.982;12.064;2023-03-03T03:00:56;25.27;;;16.23;;
12052;SDS011;6087;48.982;12.064;2023-03-03T03:03:23;25.40;;;14.30;;
12052;SDS011;6087;48.982;12.064;2023-03-03T03:05:50;25.87;;;15.13;;
12052;SDS011;6087;48.982;12.064;2023-03-03T03:08:17;23.30;;;14.70;;
12052;SDS011;6087;48.982;12.064;2023-03-03T03:10:44;26.13;;;15.33;;
12052;SDS011;6087;48.982;12.064;2023-03-03T03:13:11;23.27;;;14.73;;
12052;SDS011;6087;48.982;12.064;2023-03-03T03:15:39;23.57;;;15.07;;
12052;SDS011;6087;48.982;12.064;2023-03-03T03:18:06;21.03;;;15.00;;
12052;SDS011;6087;48.982;12.064;2023-03-03T03:20:34;23.20;;;15.47;;
12052;SDS011;6087;48.982;12.064;2023-03-03T03:23:01;23.83;;;15.07;;
12052;SDS011;6087;48.982;12.064;2023-03-03T03:25:31;23.87;;;14.67;;
12052;SDS011;6087;48.982;12.064;2023-03-03T03:28:01;25.50;;;14.40;;
12052;SDS011;6087;48.982;12.064;2023-03-03T03:30:28;23.97;;;15.00;;
12052;SDS011;6087;48.982;12.064;2023-03-03T03:32:59;28.23;;;15.37;;
12052;SDS011;6087;48.982;12.064;2023-03-03T03:35:25;28.50;;;15.77;;
12052;SDS011;6087;48.982;12.064;2023-03-03T03:37:53;24.43;;;14.23;;
12052;SDS011;6087;48.982;12.064;2023-03-03T03:40:20;20.70;;;13.47;;
12052;SDS011;6087;48.982;12.064;2023-03-03T03:42:50;24.63;;;15.17;;
12052;SDS011;6087;48.982;12.064;2023-03-03T03:45:19;24.13;;;15.37;;
12052;SDS011;6087;48.982;12.064;2023-03-03T03:47:46;28.83;;;15.37;;
12052;SDS011;6087;48.982;12.064;2023-03-03T03:50:15;24.57;;;15.40;;
12052;SDS011;6087;48.982;12.064;2023-03-03T03:52:42;25.50;;;14.83;;
12052;SDS011;6087;48.982;12.064;2023-03-03T03:55:09;23.17;;;15.07;;
12052;SDS011;6087;48.982;12.064;2023-03-03T03:57:36;25.93;;;15.43;;
12052;SDS011;6087;48.982;12.064;2023-03-03T04:00:12;26.83;;;15.20;;
12052;SDS011;6087;48.982;12.064;2023-03-03T04:02:39;24.20;;;14.77;;
12052;SDS011;6087;48.982;12.064;2023-03-03T04:05:06;26.63;;;14.73;;
12052;SDS011;6087;48.982;12.064;2023-03-03T04:07:35;29.67;;;15.93;;
12052;SDS011;6087;48.982;12.064;2023-03-03T04:10:02;23.73;;;14.50;;
12052;SDS011;6087;48.982;12.064;2023-03-03T04:12:30;23.93;;;15.27;;
12052;SDS011;6087;48.982;12.064;2023-03-03T04:15:02;23.07;;;14.83;;
12052;SDS011;6087;48.982;12.064;2023-03-03T04:17:30;24.57;;;15.07;;
12052;SDS011;6087;48.982;12.064;2023-03-03T04:20:03;24.97;;;14.47;;
12052;SDS011;6087;48.982;12.064;2023-03-03T04:22:35;27.77;;;15.70;;
12052;SDS011;6087;48.982;12.064;2023-03-03T04:25:03;26.37;;;15.27;;
12052;SDS011;6087;48.982;12.064;2023-03-03T04:27:30;24.37;;;14.63;;
12052;SDS011;6087;48.982;12.064;2023-03-03T04:29:57;23.73;;;15.23;;
12052;SDS011;6087;48.982;12.064;2023-03-03T04:32:24;21.17;;;13.87;;
12052;SDS011;6087;48.982;12.064;2023-03-03T04:34:51;27.30;;;14.77;;
12052;SDS011;6087;48.982;12.064;2023-03-03T04:37:18;25.33;;;14.23;;
12052;SDS011;6087;48.982;12.064;2023-03-03T04:39:47;23.77;;;14.13;;
12052;SDS011;6087;48.982;12.064;2023-03-03T04:42:13;22.50;;;14.60;;
12052;SDS011;6087;48.982;12.064;2023-03-03T04:44:40;21.80;;;14.07;;
12052;SDS011;6087;48.982;12.064;2023-03-03T04:47:07;25.53;;;14.93;;
12052;SDS011;6087;48.982;12.064;2023-03-03T04:49:43;23.83;;;14.60;;
12052;SDS011;6087;48.982;12.064;2023-03-03T04:52:09;23.97;;;14.40;;
12052;SDS011;6087;48.982;12.064;2023-03-03T04:54:36;25.40;;;15.80;;
12052;SDS011;6087;48.982;12.064;2023-03-03T04:57:05;23.27;;;14.50;;
12052;SDS011;6087;48.982;12.064;2023-03-03T04:59:39;23.70;;;14.90;;
12052;SDS011;6087;48.982;12.064;2023-03-03T05:02:06;20.17;;;13.00;;
12052;SDS011;6087;48.982;12.064;2023-03-03T05:04:33;23.90;;;14.60;;
12052;SDS011;6087;48.982;12.064;2023-03-03T05:07:00;25.60;;;13.97;;
12052;SDS011;6087;48.982;12.064;2023-03-03T05:09:28;20.00;;;13.20;;
12052;SDS011;6087;48.982;12.064;2023-03-03T05:11:55;23.13;;;14.23;;
12052;SDS011;6087;48.982;12.064;2023-03-03T05:14:23;22.60;;;14.80;;
12052;SDS011;6087;48.982;12.064;2023-03-03T05:16:50;28.13;;;14.60;;
12052;SDS011;6087;48.982;12.064;2023-03-03T05:19:17;21.60;;;12.93;;
12052;SDS011;6087;48.982;12.064;2023-03-03T05:21:51;26.27;;;14.50;;
12052;SDS011;6087;48.982;12.064;2023-03-03T05:24:18;22.83;;;13.47;;
12052;SDS011;6087;48.982;12.064;2023-03-03T05:26:48;23.60;;;13.50;;
12052;SDS011;6087;48.982;12.064;2023-03-03T05:29:18;25.10;;;15.03;;
12052;SDS011;6087;48.982;12.064;2023-03-03T05:31:49;26.07;;;13.93;;
12052;SDS011;6087;48.982;12.064;2023-03-03T05:34:16;24.43;;;13.90;;
12052;SDS011;6087;48.982;12.064;2023-03-03T05:36:43;24.13;;;14.27;;
12052;SDS011;6087;48.982;12.064;2023-03-03T05:39:09;24.43;;;14.80;;
12052;SDS011;6087;48.982;12.064;2023-03-03T05:41:36;22.73;;;13.73;;
12052;SDS011;6087;48.982;12.064;2023-03-03T05:44:05;23.97;;;13.40;;
12052;SDS011;6087;48.982;12.064;2023-03-03T05:46:32;21.93;;;14.03;;
12052;SDS011;6087;48.982;12.064;2023-03-03T05:49:01;22.53;;;14.03;;
12052;SDS011;6087;48.982;12.064;2023-03-03T05:51:28;26.53;;;15.00;;
12052;SDS011;6087;48.982;12.064;2023-03-03T05:53:54;22.30;;;14.10;;
12052;SDS011;6087;48.982;12.064;2023-03-03T05:56:21;23.67;;;14.37;;
12052;SDS011;6087;48.982;12.064;2023-03-03T05:58:48;26.77;;;14.53;;
12052;SDS011;6087;48.982;12.064;2023-03-03T06:01:15;27.57;;;13.90;;
12052;SDS011;6087;48.982;12.064;2023-03-03T06:03:42;24.90;;;15.33;;
12052;SDS011;6087;48.982;12.064;2023-03-03T06:06:10;21.23;;;14.57;;
12052;SDS011;6087;48.982;12.064;2023-03-03T06:08:38;23.17;;;13.93;;
12052;SDS011;6087;48.982;12.064;2023-03-03T06:11:05;27.17;;;15.40;;
12052;SDS011;6087;48.982;12.064;2023-03-03T06:13:31;25.43;;;15.80;;
12052;SDS011;6087;48.982;12.064;2023-03-03T06:15:58;28.50;;;16.77;;
12052;SDS011;6087;48.982;12.064;2023-03-03T06:18:25;24.30;;;15.40;;
12052;SDS011;6087;48.982;12.064;2023-03-03T06:20:52;24.43;;;15.37;;
12052;SDS011;6087;48.982;12.064;2023-03-03T06:23:21;22.63;;;14.00;;
12052;SDS011;6087;48.982;12.064;2023-03-03T06:25:48;21.93;;;14.23;;
12052;SDS011;6087;48.982;12.064;2023-03-03T06:28:15;23.47;;;13.83;;
12052;SDS011;6087;48.982;12.064;2023-03-03T06:30:42;22.70;;;14.23;;
12052;SDS011;6087;48.982;12.064;2023-03-03T06:33:09;21.73;;;13.87;;
12052;SDS011;6087;48.982;12.064;2023-03-03T06:35:36;24.87;;;14.23;;
12052;SDS011;6087;48.982;12.064;2023-03-03T06:38:03;28.83;;;16.07;;
12052;SDS011;6087;48.982;12.064;2023-03-03T06:40:31;22.07;;;15.20;;
12052;SDS011;6087;48.982;12.064;2023-03-03T06:42:58;24.23;;;14.53;;
12052;SDS011;6087;48.982;12.064;2023-03-03T06:45:26;24.17;;;15.33;;
12052;SDS011;6087;48.982;12.064;2023-03-03T06:47:53;25.17;;;15.60;;
12052;SDS011;6087;48.982;12.064;2023-03-03T06:50:20;25.43;;;15.03;;
12052;SDS011;6087;48.982;12.064;2023-03-03T06:52:47;22.27;;;15.00;;
12052;SDS011;6087;48.982;12.064;2023-03-03T06:55:24;25.30;;;14.40;;
12052;SDS011;6087;48.982;12.064;2023-03-03T06:57:53;25.93;;;15.43;;
12052;SDS011;6087;48.982;12.064;2023-03-03T07:00:22;23.07;;;14.83;;
12052;SDS011;6087;48.982;12.064;2023-03-03T07:02:51;22.90;;;13.17;;
12052;SDS011;6087;48.982;12.064;2023-03-03T07:05:23;24.53;;;14.37;;
12052;SDS011;6087;48.982;12.064;2023-03-03T07:07:52;23.87;;;15.47;;
12052;SDS011;6087;48.982;12.064;2023-03-03T07:10:21;24.27;;;15.67;;
12052;SDS011;6087;48.982;12.064;2023-03-03T07:12:49;23.80;;;14.90;;
12052;SDS011;6087;48.982;12.064;2023-03-03T07:15:19;26.10;;;14.60;;
12052;SDS011;6087;48.982;12.064;2023-03-03T07:17:48;24.87;;;14.60;;
12052;SDS011;6087;48.982;12.064;2023-03-03T07:20:19;25.47;;;14.53;;
12052;SDS011;6087;48.982;12.064;2023-03-03T07:22:48;26.50;;;14.80;;
12052;SDS011;6087;48.982;12.064;2023-03-03T07:25:19;24.57;;;15.23;;
12052;SDS011;6087;48.982;12.064;2023-03-03T07:27:51;24.87;;;14.07;;
12052;SDS011;6087;48.982;12.064;2023-03-03T07:30:24;22.07;;;14.53;;
12052;SDS011;6087;48.982;12.064;2023-03-03T07:32:53;24.83;;;14.57;;
12052;SDS011;6087;48.982;12.064;2023-03-03T07:35:25;27.47;;;15.77;;
12052;SDS011;6087;48.982;12.064;2023-03-03T07:38:00;23.73;;;15.17;;
12052;SDS011;6087;48.982;12.064;2023-03-03T07:40:30;27.23;;;14.93;;
12052;SDS011;6087;48.982;12.064;2023-03-03T07:43:11;27.03;;;14.27;;
12052;SDS011;6087;48.982;12.064;2023-03-03T07:45:53;23.83;;;14.23;;
12052;SDS011;6087;48.982;12.064;2023-03-03T07:48:23;24.50;;;14.90;;
12052;SDS011;6087;48.982;12.064;2023-03-03T07:50:52;32.00;;;15.13;;
12052;SDS011;6087;48.982;12.064;2023-03-03T07:53:21;27.67;;;15.77;;
12052;SDS011;6087;48.982;12.064;2023-03-03T07:55:52;25.07;;;15.03;;
12052;SDS011;6087;48.982;12.064;2023-03-03T07:58:21;28.03;;;15.60;;
12052;SDS011;6087;48.982;12.064;2023-03-03T08:03:54;24.77;;;13.77;;
12052;SDS011;6087;48.982;12.064;2023-03-03T08:06:30;25.13;;;14.23;;
12052;SDS011;6087;48.982;12.064;2023-03-03T08:09:03;22.03;;;14.63;;
12052;SDS011;6087;48.982;12.064;2023-03-03T08:11:52;27.80;;;14.93;;
12052;SDS011;6087;48.982;12.064;2023-03-03T08:14:24;26.00;;;15.43;;
12052;SDS011;6087;48.982;12.064;2023-03-03T08:16:54;24.33;;;15.40;;
12052;SDS011;6087;48.982;12.064;2023-03-03T08:19:21;26.50;;;15.67;;
12052;SDS011;6087;48.982;12.064;2023-03-03T08:21:49;34.67;;;16.93;;
12052;SDS011;6087;48.982;12.064;2023-03-03T08:24:16;28.97;;;15.87;;
12052;SDS011;6087;48.982;12.064;2023-03-03T08:26:46;29.70;;;15.50;;
12052;SDS011;6087;48.982;12.064;2023-03-03T08:29:12;26.47;;;15.80;;
12052;SDS011;6087;48.982;12.064;2023-03-03T08:31:39;26.53;;;16.47;;
12052;SDS011;6087;48.982;12.064;2023-03-03T08:34:07;30.20;;;16.43;;
12052;SDS011;6087;48.982;12.064;2023-03-03T08:36:34;23.50;;;15.73;;
12052;SDS011;6087;48.982;12.064;2023-03-03T08:39:01;30.63;;;15.67;;
12052;SDS011;6087;48.982;12.064;2023-03-03T08:41:29;28.10;;;16.13;;
12052;SDS011;6087;48.982;12.064;2023-03-03T08:43:56;27.80;;;16.07;;
12052;SDS011;6087;48.982;12.064;2023-03-03T08:46:22;28.47;;;16.90;;
12052;SDS011;6087;48.982;12.064;2023-03-03T08:48:49;28.63;;;16.27;;
12052;SDS011;6087;48.982;12.064;2023-03-03T08:51:18;26.67;;;16.13;;
12052;SDS011;6087;48.982;12.064;2023-03-03T08:53:45;27.40;;;17.10;;
12052;SDS011;6087;48.982;12.064;2023-03-03T08:56:12;29.67;;;17.13;;
12052;SDS011;6087;48.982;12.064;2023-03-03T08:58:39;26.47;;;17.00;;
12052;SDS011;6087;48.982;12.064;2023-03-03T09:01:11;26.70;;;17.13;;
12052;SDS011;6087;48.982;12.064;2023-03-03T09:03:39;25.00;;;15.73;;
12052;SDS011;6087;48.982;12.064;2023-03-03T09:06:06;26.10;;;15.70;;
12052;SDS011;6087;48.982;12.064;2023-03-03T09:08:34;26.27;;;16.47;;
12052;SDS011;6087;48.982;12.064;2023-03-03T09:11:02;30.93;;;17.07;;
12052;SDS011;6087;48.982;12.064;2023-03-03T09:13:31;30.07;;;15.60;;
12052;SDS011;6087;48.982;12.064;2023-03-03T09:15:59;27.17;;;16.13;;
12052;SDS011;6087;48.982;12.064;2023-03-03T09:18:29;27.20;;;16.30;;
12052;SDS011;6087;48.982;12.064;2023-03-03T09:21:00;25.93;;;15.90;;
12052;SDS011;6087;48.982;12.064;2023-03-03T09:23:28;29.40;;;17.63;;
12052;SDS011;6087;48.982;12.064;2023-03-03T09:26:05;27.60;;;16.57;;
12052;SDS011;6087;48.982;12.064;2023-03-03T09:28:45;26.30;;;17.27;;
12052;SDS011;6087;48.982;12.064;2023-03-03T09:31:22;26.90;;;16.37;;
12052;SDS011;6087;48.982;12.064;2023-03-03T09:33:51;25.70;;;16.47;;
12052;SDS011;6087;48.982;12.064;2023-03-03T09:36:22;31.77;;;16.47;;
12052;SDS011;6087;48.982;12.064;2023-03-03T09:38:51;33.33;;;17.77;;
12052;SDS011;6087;48.982;12.064;2023-03-03T09:41:28;28.47;;;16.93;;
12052;SDS011;6087;48.982;12.064;2023-03-03T09:44:29;29.47;;;17.17;;
12052;SDS011;6087;48.982;12.064;2023-03-03T09:47:19;33.43;;;17.00;;
12052;SDS011;6087;48.982;12.064;2023-03-03T09:49:59;27.93;;;16.67;;
12052;SDS011;6087;48.982;12.064;2023-03-03T09:52:36;29.33;;;18.10;;
12052;SDS011;6087;48.982;12.064;2023-03-03T09:55:11;27.43;;;17.77;;
12052;SDS011;6087;48.982;12.064;2023-03-03T09:57:53;29.37;;;17.33;;
12052;SDS011;6087;48.982;12.064;2023-03-03T10:00:37;26.23;;;17.20;;
12052;SDS011;6087;48.982;12.064;2023-03-03T10:03:22;26.90;;;16.23;;
12052;SDS011;6087;48.982;12.064;2023-03-03T10:06:02;30.80;;;17.30;;
12052;SDS011;6087;48.982;12.064;2023-03-03T10:08:42;28.87;;;17.90;;
12052;SDS011;6087;48.982;12.064;2023-03-03T10:11:30;25.07;;;16.63;;
12052;SDS011;6087;48.982;12.064;2023-03-03T10:14:12;29.43;;;17.87;;
12052;SDS011;6087;48.982;12.064;2023-03-03T10:17:02;26.73;;;16.97;;
12052;SDS011;6087;48.982;12.064;2023-03-03T10:19:46;28.07;;;17.93;;
12052;SDS011;6087;48.982;12.064;2023-03-03T10:22:41;28.83;;;17.23;;
12052;SDS011;6087;48.982;12.064;2023-03-03T10:25:21;29.40;;;17.70;;
12052;SDS011;6087;48.982;12.064;2023-03-03T10:27:57;29.93;;;16.97;;
12052;SDS011;6087;48.982;12.064;2023-03-03T10:30:42;25.87;;;17.23;;
12052;SDS011;6087;48.982;12.064;2023-03-03T10:33:20;27.00;;;17.53;;
12052;SDS011;6087;48.982;12.064;2023-03-03T10:36:01;26.83;;;17.97;;
12052;SDS011;6087;48.982;12.064;2023-03-03T10:38:38;31.63;;;17.77;;
12052;SDS011;6087;48.982;12.064;2023-03-03T10:41:23;29.20;;;18.13;;
12052;SDS011;6087;48.982;12.064;2023-03-03T10:44:22;26.00;;;17.37;;
12052;SDS011;6087;48.982;12.064;2023-03-03T10:50:02;26.00;;;17.57;;
12052;SDS011;6087;48.982;12.064;2023-03-03T10:52:41;25.93;;;17.30;;
12052;SDS011;6087;48.982;12.064;2023-03-03T10:58:08;29.23;;;17.77;;
12052;SDS011;6087;48.982;12.064;2023-03-03T11:00:48;24.47;;;17.07;;
12052;SDS011;6087;48.982;12.064;2023-03-03T11:03:31;27.13;;;19.00;;
12052;SDS011;6087;48.982;12.064;2023-03-03T11:06:14;32.23;;;18.43;;
12052;SDS011;6087;48.982;12.064;2023-03-03T11:08:47;30.93;;;17.33;;
12052;SDS011;6087;48.982;12.064;2023-03-03T11:11:19;27.23;;;17.13;;
12052;SDS011;6087;48.982;12.064;2023-03-03T11:13:55;30.70;;;17.30;;
12052;SDS011;6087;48.982;12.064;2023-03-03T11:16:34;27.40;;;17.17;;
12052;SDS011;6087;48.982;12.064;2023-03-03T11:19:13;30.20;;;17.83;;
12052;SDS011;6087;48.982;12.064;2023-03-03T11:21:59;27.00;;;16.73;;
12052;SDS011;6087;48.982;12.064;2023-03-03T11:24:41;26.10;;;17.40;;
12052;SDS011;6087;48.982;12.064;2023-03-03T11:27:21;28.83;;;18.77;;
12052;SDS011;6087;48.982;12.064;2023-03-03T11:30:01;32.47;;;17.90;;
12052;SDS011;6087;48.982;12.064;2023-03-03T11:32:37;26.53;;;16.57;;
12052;SDS011;6087;48.982;12.064;2023-03-03T11:35:15;29.43;;;17.47;;
12052;SDS011;6087;48.982;12.064;2023-03-03T11:37:49;24.47;;;17.67;;
12052;SDS011;6087;48.982;12.064;2023-03-03T11:40:23;26.57;;;16.97;;
12052;SDS011;6087;48.982;12.064;2023-03-03T11:42:55;28.90;;;17.90;;
12052;SDS011;6087;48.982;12.064;2023-03-03T11:45:28;29.67;;;17.80;;
12052;SDS011;6087;48.982;12.064;2023-03-03T11:48:05;29.03;;;17.73;;
12052;SDS011;6087;48.982;12.064;2023-03-03T11:50:40;28.70;;;16.70;;
12052;SDS011;6087;48.982;12.064;2023-03-03T11:53:18;27.00;;;17.53;;
12052;SDS011;6087;48.982;12.064;2023-03-03T11:55:59;27.33;;;17.17;;
12052;SDS011;6087;48.982;12.064;2023-03-03T11:58:37;23.37;;;16.37;;
12052;SDS011;6087;48.982;12.064;2023-03-03T12:01:08;24.97;;;16.73;;
12052;SDS011;6087;48.982;12.064;2023-03-03T12:03:43;25.80;;;17.07;;
12052;SDS011;6087;48.982;12.064;2023-03-03T12:06:37;28.03;;;16.93;;
12052;SDS011;6087;48.982;12.064;2023-03-03T12:09:25;26.27;;;16.97;;
12052;SDS011;6087;48.982;12.064;2023-03-03T12:12:11;24.90;;;16.97;;
12052;SDS011;6087;48.982;12.064;2023-03-03T12:14:53;25.07;;;17.83;;
12052;SDS011;6087;48.982;12.064;2023-03-03T12:17:37;28.03;;;17.77;;
12052;SDS011;6087;48.982;12.064;2023-03-03T12:20:25;26.70;;;17.97;;
12052;SDS011;6087;48.982;12.064;2023-03-03T12:23:06;25.77;;;16.80;;
12052;SDS011;6087;48.982;12.064;2023-03-03T12:25:46;29.77;;;17.40;;
12052;SDS011;6087;48.982;12.064;2023-03-03T12:28:15;24.30;;;17.67;;
12052;SDS011;6087;48.982;12.064;2023-03-03T12:30:54;24.83;;;17.02;;
12052;SDS011;6087;48.982;12.064;2023-03-03T12:33:36;26.42;;;16.92;;
12052;SDS011;6087;48.982;12.064;2023-03-03T12:36:17;25.23;;;16.00;;
12052;SDS011;6087;48.982;12.064;2023-03-03T12:38:58;23.40;;;16.73;;
12052;SDS011;6087;48.982;12.064;2023-03-03T12:41:32;22.50;;;15.55;;
12052;SDS011;6087;48.982;12.064;2023-03-03T12:44:05;23.65;;;15.95;;
12052;SDS011;6087;48.982;12.064;2023-03-03T12:46:41;23.60;;;16.60;;
12052;SDS011;6087;48.982;12.064;2023-03-03T12:49:11;24.45;;;16.10;;
12052;SDS011;6087;48.982;12.064;2023-03-03T12:51:43;19.88;;;15.40;;
12052;SDS011;6087;48.982;12.064;2023-03-03T12:54:22;21.08;;;17.23;;
12052;SDS011;6087;48.982;12.064;2023-03-03T12:57:02;21.80;;;15.75;;
12052;SDS011;6087;48.982;12.064;2023-03-03T12:59:39;19.77;;;14.90;;
12052;SDS011;6087;48.982;12.064;2023-03-03T13:02:19;20.88;;;15.40;;
12052;SDS011;6087;48.982;12.064;2023-03-03T13:05:03;21.63;;;15.05;;
12052;SDS011;6087;48.982;12.064;2023-03-03T13:07:40;21.65;;;14.55;;
12052;SDS011;6087;48.982;12.064;2023-03-03T13:10:15;17.73;;;15.20;;
12052;SDS011;6087;48.982;12.064;2023-03-03T13:12:48;19.80;;;14.85;;
12052;SDS011;6087;48.982;12.064;2023-03-03T13:15:20;17.35;;;14.00;;
12052;SDS011;6087;48.982;12.064;2023-03-03T13:17:53;20.60;;;14.45;;
12052;SDS011;6087;48.982;12.064;2023-03-03T13:20:30;23.58;;;14.45;;
12052;SDS011;6087;48.982;12.064;2023-03-03T13:23:06;17.30;;;13.68;;
12052;SDS011;6087;48.982;12.064;2023-03-03T13:25:40;15.90;;;13.63;;
12052;SDS011;6087;48.982;12.064;2023-03-03T13:28:18;16.38;;;13.05;;
12052;SDS011;6087;48.982;12.064;2023-03-03T13:30:51;16.02;;;12.27;;
12052;SDS011;6087;48.982;12.064;2023-03-03T13:33:26;17.00;;;12.80;;
12052;SDS011;6087;48.982;12.064;2023-03-03T13:35:55;15.23;;;13.38;;
12052;SDS011;6087;48.982;12.064;2023-03-03T13:38:28;14.95;;;13.40;;
12052;SDS011;6087;48.982;12.064;2023-03-03T13:41:04;14.80;;;13.30;;
12052;SDS011;6087;48.982;12.064;2023-03-03T13:43:34;17.13;;;13.40;;
12052;SDS011;6087;48.982;12.064;2023-03-03T13:46:10;16.73;;;13.05;;
12052;SDS011;6087;48.982;12.064;2023-03-03T13:51:37;15.25;;;12.85;;
12052;SDS011;6087;48.982;12.064;2023-03-03T13:54:13;15.00;;;13.43;;
12052;SDS011;6087;48.982;12.064;2023-03-03T14:00:02;17.65;;;13.80;;
12052;SDS011;6087;48.982;12.064;2023-03-03T14:02:42;17.00;;;13.38;;
12052;SDS011;6087;48.982;12.064;2023-03-03T14:05:29;14.95;;;12.65;;
12052;SDS011;6087;48.982;12.064;2023-03-03T14:08:03;14.45;;;12.95;;
12052;SDS011;6087;48.982;12.064;2023-03-03T14:10:39;16.65;;;13.27;;
12052;SDS011;6087;48.982;12.064;2023-03-03T14:13:11;16.45;;;12.65;;
12052;SDS011;6087;48.982;12.064;2023-03-03T14:15:43;14.35;;;12.85;;
12052;SDS011;6087;48.982;12.064;2023-03-03T14:18:27;13.90;;;12.50;;
12052;SDS011;6087;48.982;12.064;2023-03-03T14:20:59;14.80;;;12.45;;
12052;SDS011;6087;48.982;12.064;2023-03-03T14:23:40;15.00;;;12.77;;
12052;SDS011;6087;48.982;12.064;2023-03-03T14:26:15;14.48;;;12.90;;
12052;SDS011;6087;48.982;12.064;2023-03-03T14:28:44;15.52;;;12.45;;
12052;SDS011;6087;48.982;12.064;2023-03-03T14:31:20;15.27;;;12.93;;
12052;SDS011;6087;48.982;12.064;2023-03-03T14:33:56;18.05;;;12.00;;
12052;SDS011;6087;48.982;12.064;2023-03-03T14:36:30;14.90;;;11.90;;
12052;SDS011;6087;48.982;12.064;2023-03-03T14:38:58;13.50;;;10.13;;
12052;SDS011;6087;48.982;12.064;2023-03-03T14:41:34;13.68;;;11.25;;
12052;SDS011;6087;48.982;12.064;2023-03-03T14:47:10;13.38;;;10.82;;
12052;SDS011;6087;48.982;12.064;2023-03-03T14:49:51;17.25;;;12.73;;
12052;SDS011;6087;48.982;12.064;2023-03-03T14:55:07;16.40;;;12.70;;
12052;SDS011;6087;48.982;12.064;2023-03-03T14:57:56;15.10;;;11.50;;
12052;SDS011;6087;48.982;12.064;2023-03-03T15:00:30;16.15;;;11.30;;
12052;SDS011;6087;48.982;12.064;2023-03-03T15:03:00;14.07;;;12.02;;
12052;SDS011;6087;48.982;12.064;2023-03-03T15:05:30;12.63;;;10.80;;
12052;SDS011;6087;48.982;12.064;2023-03-03T15:08:06;14.32;;;11.18;;
12052;SDS011;6087;48.982;12.064;2023-03-03T15:10:35;14.65;;;10.95;;